Stations météo

réclame
Mon MeteoGroup
Bourg-St-Maurice, France (7497): Température de l'air & dewpoint: 17.09.2019 07:00:00 - 23.09.2019 07:00:00 (CEST)Bourg-St-Maurice, France (7497): Température de l'air -20cm & Température de l'air -100cm: 17.09.2019 07:00:00 - 23.09.2019 07:00:00 (CEST)Bourg-St-Maurice, France (7497): Vitesse du vent & gusts: 17.09.2019 07:00:00 - 23.09.2019 07:00:00 (CEST)Bourg-St-Maurice, France (7497): Direction du vent: 17.09.2019 07:00:00 - 23.09.2019 07:00:00 (CEST)Bourg-St-Maurice, France (7497): Ensoleillement: 17.09.2019 07:00:00 - 23.09.2019 07:00:00 (CEST)Bourg-St-Maurice, France (7497): Quantités de précipitations: 17.09.2019 07:00:00 - 23.09.2019 07:00:00 (CEST)
Date & Time tt [°C] td [°C] tt -20cm [°C] tt -100cm [°C] ff [km/h] ff [knt] fx [km/h] fx [knt] dd sd [min] rr [mm]
23.09.2019 07:00:00 11,7 11,2 20,0 19,7 4 2 9 5 SSW 0 0,0
23.09.2019 06:00:00 11,8 11,3 20,1 19,7 3 2 10 5 SSW 0 0,2
23.09.2019 05:00:00 11,9 11,4 20,3 19,7 0 0 16 9 N 0 0,4
23.09.2019 04:00:00 12,2 11,7 20,4 19,7 3 2 11 6 SW 0 1,0
23.09.2019 03:00:00 12,6 12,0 20,6 19,7 3 2 17 9 SSW 0 1,2
23.09.2019 02:00:00 13,0 12,2 20,6 19,7 9 5 20 11 SSW 0 3,4
23.09.2019 01:00:00 14,9 14,3 20,7 19,7 4 2 16 8 SSW 0 2,7
23.09.2019 00:00:00 14,8 13,5 20,8 19,7 5 3 16 8 WNW 0 4,6
22.09.2019 23:00:00 15,6 13,3 20,8 19,7 9 5 18 10 SW 0 0,0
22.09.2019 22:00:00 17,4 10,7 20,9 19,7 5 3 29 16 W 0 0,0
22.09.2019 21:00:00 19,2 8,8 20,9 19,7 10 6 28 15 E 0 0,0
22.09.2019 20:00:00 19,5 8,2 20,9 19,7 4 2 21 11 SSW 0 0,0
22.09.2019 19:00:00 20,3 8,0 20,8 19,7 4 2 29 16 NE 0 0,0
22.09.2019 18:00:00 20,8 7,8 20,7 19,7 11 6 33 18 ENE 0 0,0
22.09.2019 17:00:00 21,3 7,9 20,6 19,7 12 6 36 20 E 0 0,0
22.09.2019 16:00:00 22,6 7,6 20,4 19,7 14 7 35 19 ENE 1 0,0
22.09.2019 15:00:00 23,3 7,0 20,2 19,7 14 8 39 21 ENE 6 0,0
22.09.2019 14:00:00 23,7 6,9 20,0 19,7 15 8 37 20 ENE 6 0,0
22.09.2019 13:00:00 24,2 6,9 19,9 19,7 18 10 46 25 ENE 52 0,0
22.09.2019 12:00:00 23,5 6,7 19,8 19,7 16 9 46 25 ENE 36 0,0
22.09.2019 11:00:00 21,8 6,5 19,9 19,8 19 10 39 21 NE 35 0,0
22.09.2019 10:00:00 18,1 7,5 19,9 19,8 4 2 29 16 S 21 0,0
22.09.2019 09:00:00 15,7 7,2 20,0 19,8 10 6 27 14 SSE 16 0,0
22.09.2019 08:00:00 14,3 7,1 20,1 19,7 3 2 17 9 WSW 0 0,0
22.09.2019 07:00:00 15,4 6,4 20,2 19,8 5 3 32 18 S 0 0,0
22.09.2019 06:00:00 17,0 5,6 20,4 19,8 11 6 28 15 ESE 0 0,0
22.09.2019 05:00:00 17,1 5,4 20,4 19,8 8 5 39 21 N 0 0,0
22.09.2019 04:00:00 18,0 4,9 20,5 19,8 18 10 48 26 NE 0 0,0
22.09.2019 03:00:00 18,3 4,8 20,6 19,8 24 13 56 30 NE 0 0,0
22.09.2019 02:00:00 18,0 5,9 20,7 19,8 25 13 67 36 NE 0 0,0
22.09.2019 01:00:00 18,3 5,5 20,7 19,8 20 11 58 32 NE 0 0,0
22.09.2019 00:00:00 18,4 5,9 20,8 19,8 22 12 62 33 NE 0 0,0
21.09.2019 23:00:00 18,4 6,2 20,8 19,7 24 13 60 33 NE 0 0,0
21.09.2019 22:00:00 18,5 6,7 20,9 19,8 21 11 64 35 NE 0 0,0
21.09.2019 21:00:00 19,0 5,8 20,9 19,8 27 15 62 34 NE 0 0,0
21.09.2019 20:00:00 19,3 5,7 21,0 19,8 26 14 57 31 ENE 0 0,0
21.09.2019 19:00:00 19,6 4,9 20,9 19,8 22 12 58 31 NE 0 0,0
21.09.2019 18:00:00 20,7 5,1 20,9 19,8 21 11 55 30 NE 51 0,0
21.09.2019 17:00:00 21,8 6,1 20,7 19,8 22 12 64 34 ENE 60 0,0
21.09.2019 16:00:00 22,3 6,5 20,5 19,8 24 13 56 30 ENE 29 0,0
21.09.2019 15:00:00 23,4 5,8 20,1 19,8 15 8 34 18 ENE 32 0,0
21.09.2019 14:00:00 25,6 5,2 19,9 19,8 7 4 23 12 E 60 0,0
21.09.2019 13:00:00 24,9 6,1 19,7 19,8 5 3 11 6 SSE 60 0,0
21.09.2019 12:00:00 22,5 6,7 19,6 19,8 4 2 9 5 E 60 0,0
21.09.2019 11:00:00 18,8 9,3 19,6 19,8 3 2 8 5 ESE 60 0,4
21.09.2019 10:00:00 15,1 9,5 19,8 19,8 4 2 8 4 SSE 60 0,2
21.09.2019 09:00:00 11,4 8,4 19,9 19,8 2 1 6 3 NNW 18 0,0
21.09.2019 08:00:00 9,8 7,9 20,1 19,8 3 2 8 4 N 0 0,0
21.09.2019 07:00:00 9,8 8,1 20,3 19,8 2 1 7 4 N 0 0,0
21.09.2019 06:00:00 10,7 8,5 20,4 19,8 2 1 8 4 SW 0 0,0
21.09.2019 05:00:00 11,1 8,8 20,6 19,8 2 1 14 7 NNW 0 0,0
21.09.2019 04:00:00 11,5 9,4 20,7 19,8 3 1 7 4 NNW 0 0,0
21.09.2019 03:00:00 12,0 9,7 20,9 19,8 2 1 8 4 S 0 0,0
21.09.2019 02:00:00 12,6 10,0 21,0 19,8 2 1 5 3 NNW 0 0,0
21.09.2019 01:00:00 13,5 10,3 21,1 19,8 3 1 10 6 NNW 0 0,0
21.09.2019 00:00:00 14,3 10,5 21,3 19,8 3 2 6 3 W 0 0,0
20.09.2019 23:00:00 15,4 10,8 21,4 19,8 3 1 9 5 NNW 0 0,0
20.09.2019 22:00:00 16,3 11,0 21,4 19,8 2 1 6 4 NW 0 0,0
20.09.2019 21:00:00 17,0 11,0 21,4 19,8 3 1 9 5 WNW 0 0,0
20.09.2019 20:00:00 19,0 11,1 21,4 19,8 3 2 8 5 WSW 0 0,0
20.09.2019 19:00:00 20,9 11,2 21,4 19,8 5 3 22 12 WSW 5 0,0
20.09.2019 18:00:00 24,1 11,1 21,2 19,8 6 3 26 14 SW 60 0,0
20.09.2019 17:00:00 25,3 9,6 21,0 19,8 10 5 29 16 S 60 0,0
20.09.2019 16:00:00 25,5 10,5 20,7 19,8 8 5 28 15 SSE 60 0,0
20.09.2019 15:00:00 25,5 10,5 20,4 19,8 9 5 23 13 SSW 60 0,0
20.09.2019 14:00:00 24,5 10,0 20,1 19,8 8 4 16 9 S 60 0,0
20.09.2019 13:00:00 22,8 9,6 19,9 19,8 6 4 15 8 S 60 0,0
20.09.2019 12:00:00 21,0 10,8 19,9 19,8 6 3 13 7 S 60 0,0
20.09.2019 11:00:00 17,7 10,3 19,9 19,8 5 3 9 5 SSE 60 0,0
20.09.2019 10:00:00 14,6 9,6 20,1 19,8 3 2 5 3 SSE 60 0,0
20.09.2019 09:00:00 11,2 9,8 20,2 19,8 3 2 5 3 ENE 20 0,0
20.09.2019 08:00:00 9,2 8,4 20,5 19,8 0 0 4 2 N 0 0,0
20.09.2019 07:00:00 9,4 8,5 20,6 19,8 3 2 5 3 W 0 0,0
20.09.2019 06:00:00 9,6 8,5 20,8 19,8 4 2 9 5 NW 0 0,0
20.09.2019 05:00:00 9,9 8,5 21,0 19,8 0 0 4 2 N 0 0,0
20.09.2019 04:00:00 10,4 9,0 21,2 19,8 0 0 5 3 N 0 0,0
20.09.2019 03:00:00 10,8 9,1 21,3 19,8 2 1 5 3 SW 0 0,0
20.09.2019 02:00:00 11,2 9,1 21,5 19,8 3 1 6 4 NNE 0 0,0
20.09.2019 01:00:00 12,0 9,4 21,6 19,8 2 1 5 3 WNW 0 0,0
20.09.2019 00:00:00 12,5 9,5 21,7 19,8 3 1 5 3 WNW 0 0,0
19.09.2019 23:00:00 13,3 9,7 21,9 19,8 3 2 6 4 W 0 0,0
19.09.2019 22:00:00 14,2 10,0 22,0 19,8 3 2 8 4 WNW 0 0,0
19.09.2019 21:00:00 15,3 9,9 22,0 19,7 0 0 9 5 N 0 0,0
19.09.2019 20:00:00 17,0 10,1 22,1 19,7 5 3 12 6 W 0 0,0
19.09.2019 19:00:00 18,8 10,1 22,1 19,7 3 2 25 14 SE 7 0,0
19.09.2019 18:00:00 22,0 10,5 22,0 19,8 10 5 29 16 SSW 60 0,0
19.09.2019 17:00:00 23,1 10,5 21,8 19,7 10 5 27 14 SSW 60 0,0
19.09.2019 16:00:00 23,7 10,4 21,5 19,7 11 6 29 15 S 60 0,0
19.09.2019 15:00:00 24,1 11,1 21,2 19,7 11 6 26 14 S 60 0,0
19.09.2019 14:00:00 23,2 11,3 21,0 19,7 12 6 28 15 S 60 0,0
19.09.2019 13:00:00 22,9 11,0 20,8 19,7 9 5 20 11 S 60 0,0
19.09.2019 12:00:00 21,4 10,2 20,8 19,7 6 3 14 8 S 60 0,0
19.09.2019 11:00:00 18,6 11,7 20,8 19,7 6 3 15 8 S 57 0,0
19.09.2019 10:00:00 14,7 11,3 20,9 19,7 5 3 10 6 S 0 0,0
19.09.2019 09:00:00 14,5 11,1 20,9 19,7 2 1 6 4 SSE 0 0,0
19.09.2019 08:00:00 14,0 11,0 21,1 19,7 0 0 4 2 N 0 0,0
19.09.2019 07:00:00 13,9 10,9 21,2 19,7 0 0 6 3 N 0 0,0
19.09.2019 06:00:00 14,1 11,1 21,3 19,7 3 2 8 4 SSW 0 0,0
19.09.2019 05:00:00 14,2 10,8 21,4 19,7 0 0 5 3 N 0 0,0
19.09.2019 04:00:00 14,4 11,2 21,4 19,7 2 1 5 3 S 0 0,0
19.09.2019 03:00:00 14,5 11,1 21,6 19,7 0 0 6 3 N 0 0,0
19.09.2019 02:00:00 14,6 11,2 21,7 19,7 2 1 5 3 SSW 0 0,0
19.09.2019 01:00:00 14,7 11,3 21,8 19,7 0 0 3 1 N 0 0,0
19.09.2019 00:00:00 14,4 11,2 21,9 19,7 0 0 6 3 N 0 0,0
18.09.2019 23:00:00 14,9 11,1 22,0 19,7 4 2 9 5 W 0 0,0
18.09.2019 22:00:00 15,7 11,3 22,1 19,7 3 2 8 4 W 0 0,0
18.09.2019 21:00:00 17,0 11,3 22,1 19,7 3 2 16 9 W 0 0,0
18.09.2019 20:00:00 18,4 11,2 22,1 19,7 3 2 23 12 SW 0 0,0
18.09.2019 19:00:00 20,5 10,9 22,1 19,7 8 4 26 14 SW 9 0,0
18.09.2019 18:00:00 24,4 10,7 21,9 19,6 11 6 28 15 SSW 54 0,0
18.09.2019 17:00:00 25,3 10,7 21,7 19,7 9 5 23 12 S 37 0,0
18.09.2019 16:00:00 24,5 11,4 21,5 19,6 6 3 25 13 SSW 2 0,0
18.09.2019 15:00:00 25,0 11,5 21,2 19,7 9 5 24 13 S 37 0,0
18.09.2019 14:00:00 26,0 10,6 21,0 19,7 9 5 23 12 S 42 0,0
18.09.2019 13:00:00 24,9 10,7 20,8 19,6 6 3 13 7 SSE 60 0,0
18.09.2019 12:00:00 21,6 11,3 20,8 19,6 3 1 11 6 SSW 37 0,0
18.09.2019 11:00:00 17,8 10,9 20,8 19,6 5 3 10 6 S 3 0,0
18.09.2019 10:00:00 16,3 10,8 20,9 19,6 0 0 6 3 N 0 0,0
18.09.2019 09:00:00 15,0 10,6 21,0 19,6 3 2 5 3 NNE 8 0,0
18.09.2019 08:00:00 13,5 10,3 21,2 19,6 0 0 5 3 N 9 0,0
18.09.2019 07:00:00 13,5 9,9 21,3 19,6 0 0 4 2 N 0 0,0
18.09.2019 06:00:00 13,4 10,0 21,4 19,6 0 0 3 2 N 0 0,0
18.09.2019 05:00:00 13,9 9,9 21,6 19,6 0 0 4 2 N 0 0,0
18.09.2019 04:00:00 14,2 9,8 21,7 19,6 2 1 5 3 NW 0 0,0
18.09.2019 03:00:00 14,6 9,8 21,8 19,6 0 0 4 2 N 0 0,0
18.09.2019 02:00:00 15,3 9,9 22,0 19,6 4 2 5 3 NNW 0 0,0
18.09.2019 01:00:00 15,8 9,9 22,1 19,6 2 1 5 3 N 0 0,0
18.09.2019 00:00:00 17,1 10,0 22,2 19,6 3 1 6 3 N 0 0,0
17.09.2019 23:00:00 18,2 9,8 22,3 19,6 3 1 9 5 NNW 0 0,0
17.09.2019 22:00:00 19,3 9,8 22,3 19,6 4 2 11 6 NNE 0 0,0
17.09.2019 21:00:00 21,5 9,1 22,4 19,6 4 2 18 10 W 0 0,0
17.09.2019 20:00:00 22,6 9,7 22,3 19,5 6 4 16 9 W 0 0,0
17.09.2019 19:00:00 26,0 9,3 22,2 19,5 7 4 20 11 NNE 10 0,0
17.09.2019 18:00:00 27,4 8,8 22,1 19,5 11 6 34 18 N 30 0,0
17.09.2019 17:00:00 29,2 8,3 21,8 19,5 13 7 33 18 SE 55 0,0
17.09.2019 16:00:00 30,0 7,8 21,6 19,5 11 6 26 14 SSE 44 0,0
17.09.2019 15:00:00 28,1 7,3 21,2 19,5 9 5 29 16 SSE 36 0,0
17.09.2019 14:00:00 29,3 8,9 20,9 19,5 11 6 24 13 S 57 0,0
17.09.2019 13:00:00 28,2 10,8 20,7 19,5 8 4 18 10 S 60 0,0
17.09.2019 12:00:00 25,7 11,1 20,6 19,5 4 2 10 6 S 60 0,0
17.09.2019 11:00:00 22,7 10,2 20,6 19,5 2 1 6 4 ESE 60 0,0
17.09.2019 10:00:00 19,3 10,8 20,7 19,5 3 1 6 3 NE 60 0,0
17.09.2019 09:00:00 15,1 11,1 20,8 19,5 2 1 4 2 NNE 26 0,0
17.09.2019 08:00:00 13,2 10,2 21,0 19,5 3 1 6 3 N 0 0,0
17.09.2019 07:00:00 13,2 10,2 21,2 19,5 0 0 4 2 N 0 0,0

tt = Température de l'air
td = dewpoint
tt -20cm = Température de l'air -20cm
tt -100cm = Température de l'air -100cm
ff = Vitesse du vent
fx = gusts
dd = Direction du vent
sd = Ensoleillement
rr = Quantités de précipitations

stations d'obs. à proximité